sensor_id;sensor_type;location;lat;lon;timestamp;P1;durP1;ratioP1;P2;durP2;ratioP2
13319;SDS011;59599;47.608;12.190;2023-06-22T04:00:23;17.13;;;9.32;;
13319;SDS011;59599;47.608;12.190;2023-06-22T04:02:49;20.50;;;9.85;;
13319;SDS011;59599;47.608;12.190;2023-06-22T04:05:14;17.73;;;9.18;;
13319;SDS011;59599;47.608;12.190;2023-06-22T04:07:43;16.05;;;9.13;;
13319;SDS011;59599;47.608;12.190;2023-06-22T04:10:08;18.85;;;9.68;;
13319;SDS011;59599;47.608;12.190;2023-06-22T04:12:35;14.13;;;8.95;;
13319;SDS011;59599;47.608;12.190;2023-06-22T04:15:01;15.48;;;9.40;;
13319;SDS011;59599;47.608;12.190;2023-06-22T04:17:27;13.35;;;9.95;;
13319;SDS011;59599;47.608;12.190;2023-06-22T04:19:53;14.80;;;8.98;;
13319;SDS011;59599;47.608;12.190;2023-06-22T04:22:19;19.15;;;9.70;;
13319;SDS011;59599;47.608;12.190;2023-06-22T04:24:45;23.33;;;9.43;;
13319;SDS011;59599;47.608;12.190;2023-06-22T04:27:11;17.02;;;9.07;;
13319;SDS011;59599;47.608;12.190;2023-06-22T04:29:37;17.95;;;9.90;;
13319;SDS011;59599;47.608;12.190;2023-06-22T04:32:03;13.50;;;9.45;;
13319;SDS011;59599;47.608;12.190;2023-06-22T04:34:30;11.00;;;8.90;;
13319;SDS011;59599;47.608;12.190;2023-06-22T04:36:56;17.30;;;9.52;;
13319;SDS011;59599;47.608;12.190;2023-06-22T04:39:22;14.60;;;10.75;;
13319;SDS011;59599;47.608;12.190;2023-06-22T04:41:48;15.45;;;10.65;;
13319;SDS011;59599;47.608;12.190;2023-06-22T04:44:16;19.80;;;9.60;;
13319;SDS011;59599;47.608;12.190;2023-06-22T04:46:51;14.15;;;9.00;;
13319;SDS011;59599;47.608;12.190;2023-06-22T04:49:24;17.05;;;9.38;;
13319;SDS011;59599;47.608;12.190;2023-06-22T04:51:57;17.25;;;8.63;;
13319;SDS011;59599;47.608;12.190;2023-06-22T04:54:23;27.13;;;9.40;;
13319;SDS011;59599;47.608;12.190;2023-06-22T04:56:49;12.90;;;8.52;;
13319;SDS011;59599;47.608;12.190;2023-06-22T04:59:21;15.38;;;9.38;;
13319;SDS011;59599;47.608;12.190;2023-06-22T05:01:58;18.85;;;9.80;;
13319;SDS011;59599;47.608;12.190;2023-06-22T05:04:24;17.17;;;9.00;;
13319;SDS011;59599;47.608;12.190;2023-06-22T05:06:50;15.65;;;8.80;;
13319;SDS011;59599;47.608;12.190;2023-06-22T05:09:17;17.42;;;8.88;;
13319;SDS011;59599;47.608;12.190;2023-06-22T05:11:43;18.00;;;8.90;;
13319;SDS011;59599;47.608;12.190;2023-06-22T05:14:09;18.55;;;8.20;;
13319;SDS011;59599;47.608;12.190;2023-06-22T05:16:34;14.40;;;8.27;;
13319;SDS011;59599;47.608;12.190;2023-06-22T05:19:00;22.70;;;9.10;;
13319;SDS011;59599;47.608;12.190;2023-06-22T05:21:28;20.00;;;8.95;;
13319;SDS011;59599;47.608;12.190;2023-06-22T05:23:54;16.33;;;8.50;;
13319;SDS011;59599;47.608;12.190;2023-06-22T05:26:21;20.40;;;8.73;;
13319;SDS011;59599;47.608;12.190;2023-06-22T05:28:47;18.50;;;8.10;;
13319;SDS011;59599;47.608;12.190;2023-06-22T05:31:16;15.45;;;8.55;;
13319;SDS011;59599;47.608;12.190;2023-06-22T05:33:42;17.90;;;8.23;;
13319;SDS011;59599;47.608;12.190;2023-06-22T05:36:09;15.88;;;8.70;;
13319;SDS011;59599;47.608;12.190;2023-06-22T05:38:35;15.68;;;8.25;;
13319;SDS011;59599;47.608;12.190;2023-06-22T05:41:01;20.55;;;8.63;;
13319;SDS011;59599;47.608;12.190;2023-06-22T05:43:27;21.60;;;9.10;;
13319;SDS011;59599;47.608;12.190;2023-06-22T05:45:53;17.27;;;9.38;;
13319;SDS011;59599;47.608;12.190;2023-06-22T05:48:19;17.33;;;9.20;;
13319;SDS011;59599;47.608;12.190;2023-06-22T05:50:45;21.23;;;8.80;;
13319;SDS011;59599;47.608;12.190;2023-06-22T05:53:11;15.38;;;9.38;;
13319;SDS011;59599;47.608;12.190;2023-06-22T05:55:37;20.10;;;9.20;;
13319;SDS011;59599;47.608;12.190;2023-06-22T05:58:03;21.02;;;8.63;;
13319;SDS011;59599;47.608;12.190;2023-06-22T06:00:29;22.55;;;9.85;;
13319;SDS011;59599;47.608;12.190;2023-06-22T06:02:55;18.42;;;9.00;;
13319;SDS011;59599;47.608;12.190;2023-06-22T06:05:21;21.98;;;9.32;;
13319;SDS011;59599;47.608;12.190;2023-06-22T06:07:48;14.85;;;8.52;;
13319;SDS011;59599;47.608;12.190;2023-06-22T06:10:14;16.10;;;9.10;;
13319;SDS011;59599;47.608;12.190;2023-06-22T06:12:40;17.33;;;8.05;;
13319;SDS011;59599;47.608;12.190;2023-06-22T06:15:06;11.77;;;8.02;;
13319;SDS011;59599;47.608;12.190;2023-06-22T06:17:32;16.35;;;7.25;;
13319;SDS011;59599;47.608;12.190;2023-06-22T06:19:58;16.70;;;8.10;;
13319;SDS011;59599;47.608;12.190;2023-06-22T06:22:24;15.90;;;8.30;;
13319;SDS011;59599;47.608;12.190;2023-06-22T06:24:50;12.98;;;7.97;;
13319;SDS011;59599;47.608;12.190;2023-06-22T06:27:16;16.98;;;8.38;;
13319;SDS011;59599;47.608;12.190;2023-06-22T06:29:45;13.38;;;6.88;;
13319;SDS011;59599;47.608;12.190;2023-06-22T06:32:13;12.82;;;7.40;;
13319;SDS011;59599;47.608;12.190;2023-06-22T06:34:39;14.57;;;7.63;;
13319;SDS011;59599;47.608;12.190;2023-06-22T06:37:05;19.73;;;7.72;;
13319;SDS011;59599;47.608;12.190;2023-06-22T06:39:31;14.40;;;7.78;;
13319;SDS011;59599;47.608;12.190;2023-06-22T06:41:56;10.43;;;6.97;;
13319;SDS011;59599;47.608;12.190;2023-06-22T06:44:22;17.63;;;7.22;;
13319;SDS011;59599;47.608;12.190;2023-06-22T06:46:48;19.23;;;7.45;;
13319;SDS011;59599;47.608;12.190;2023-06-22T06:49:15;19.80;;;7.40;;
13319;SDS011;59599;47.608;12.190;2023-06-22T06:51:41;12.82;;;7.05;;
13319;SDS011;59599;47.608;12.190;2023-06-22T06:54:07;15.40;;;8.40;;
13319;SDS011;59599;47.608;12.190;2023-06-22T06:56:32;16.90;;;8.63;;
13319;SDS011;59599;47.608;12.190;2023-06-22T06:58:58;16.05;;;8.43;;
13319;SDS011;59599;47.608;12.190;2023-06-22T07:01:24;20.38;;;8.68;;
13319;SDS011;59599;47.608;12.190;2023-06-22T07:03:49;19.17;;;8.25;;
13319;SDS011;59599;47.608;12.190;2023-06-22T07:06:15;18.63;;;8.77;;
13319;SDS011;59599;47.608;12.190;2023-06-22T07:08:41;20.98;;;8.02;;
13319;SDS011;59599;47.608;12.190;2023-06-22T07:11:07;18.58;;;8.20;;
13319;SDS011;59599;47.608;12.190;2023-06-22T07:13:33;16.20;;;7.15;;
13319;SDS011;59599;47.608;12.190;2023-06-22T07:15:59;13.60;;;7.47;;
13319;SDS011;59599;47.608;12.190;2023-06-22T07:18:25;24.92;;;8.63;;
13319;SDS011;59599;47.608;12.190;2023-06-22T07:20:51;15.65;;;8.60;;
13319;SDS011;59599;47.608;12.190;2023-06-22T07:23:17;12.70;;;7.05;;
13319;SDS011;59599;47.608;12.190;2023-06-22T07:25:43;18.13;;;8.80;;
13319;SDS011;59599;47.608;12.190;2023-06-22T07:28:09;17.30;;;8.27;;
13319;SDS011;59599;47.608;12.190;2023-06-22T07:30:36;17.10;;;7.35;;
13319;SDS011;59599;47.608;12.190;2023-06-22T07:33:02;17.70;;;8.07;;
13319;SDS011;59599;47.608;12.190;2023-06-22T07:35:29;17.40;;;8.27;;
13319;SDS011;59599;47.608;12.190;2023-06-22T07:37:56;20.55;;;9.10;;
13319;SDS011;59599;47.608;12.190;2023-06-22T07:40:22;17.70;;;8.63;;
13319;SDS011;59599;47.608;12.190;2023-06-22T07:42:47;23.02;;;9.65;;
13319;SDS011;59599;47.608;12.190;2023-06-22T07:45:13;20.75;;;8.65;;
13319;SDS011;59599;47.608;12.190;2023-06-22T07:47:39;18.70;;;8.43;;
13319;SDS011;59599;47.608;12.190;2023-06-22T07:50:05;21.00;;;8.68;;
13319;SDS011;59599;47.608;12.190;2023-06-22T07:52:31;18.40;;;8.98;;
13319;SDS011;59599;47.608;12.190;2023-06-22T07:54:57;17.98;;;8.20;;
13319;SDS011;59599;47.608;12.190;2023-06-22T07:57:23;18.48;;;8.18;;
13319;SDS011;59599;47.608;12.190;2023-06-22T07:59:56;18.10;;;8.32;;
13319;SDS011;59599;47.608;12.190;2023-06-22T08:02:23;19.95;;;8.35;;
13319;SDS011;59599;47.608;12.190;2023-06-22T08:04:48;17.33;;;8.73;;
13319;SDS011;59599;47.608;12.190;2023-06-22T08:07:14;19.50;;;7.97;;
13319;SDS011;59599;47.608;12.190;2023-06-22T08:09:42;22.83;;;8.80;;
13319;SDS011;59599;47.608;12.190;2023-06-22T08:12:13;15.00;;;7.60;;
13319;SDS011;59599;47.608;12.190;2023-06-22T08:14:39;15.68;;;7.93;;
13319;SDS011;59599;47.608;12.190;2023-06-22T08:17:05;22.65;;;8.73;;
13319;SDS011;59599;47.608;12.190;2023-06-22T08:19:32;24.10;;;8.77;;
13319;SDS011;59599;47.608;12.190;2023-06-22T08:21:57;25.52;;;8.50;;
13319;SDS011;59599;47.608;12.190;2023-06-22T08:24:24;15.18;;;7.97;;
13319;SDS011;59599;47.608;12.190;2023-06-22T08:26:51;24.90;;;8.13;;
13319;SDS011;59599;47.608;12.190;2023-06-22T08:29:17;16.73;;;8.00;;
13319;SDS011;59599;47.608;12.190;2023-06-22T08:31:43;14.82;;;7.90;;
13319;SDS011;59599;47.608;12.190;2023-06-22T08:34:09;22.92;;;9.20;;
13319;SDS011;59599;47.608;12.190;2023-06-22T08:36:34;22.50;;;8.18;;
13319;SDS011;59599;47.608;12.190;2023-06-22T08:39:06;20.60;;;8.40;;
13319;SDS011;59599;47.608;12.190;2023-06-22T08:41:33;19.95;;;8.52;;
13319;SDS011;59599;47.608;12.190;2023-06-22T08:43:58;19.15;;;7.15;;
13319;SDS011;59599;47.608;12.190;2023-06-22T08:46:24;16.40;;;8.30;;
13319;SDS011;59599;47.608;12.190;2023-06-22T08:48:55;21.25;;;7.68;;
13319;SDS011;59599;47.608;12.190;2023-06-22T08:51:22;20.30;;;7.45;;
13319;SDS011;59599;47.608;12.190;2023-06-22T08:53:48;21.42;;;7.75;;
13319;SDS011;59599;47.608;12.190;2023-06-22T08:56:14;11.93;;;7.53;;
13319;SDS011;59599;47.608;12.190;2023-06-22T08:58:40;20.13;;;7.10;;
13319;SDS011;59599;47.608;12.190;2023-06-22T09:01:06;19.80;;;8.13;;
13319;SDS011;59599;47.608;12.190;2023-06-22T09:03:32;16.55;;;8.50;;
13319;SDS011;59599;47.608;12.190;2023-06-22T09:05:59;20.58;;;8.85;;
13319;SDS011;59599;47.608;12.190;2023-06-22T09:08:25;18.95;;;7.55;;
13319;SDS011;59599;47.608;12.190;2023-06-22T09:10:50;14.95;;;7.45;;
13319;SDS011;59599;47.608;12.190;2023-06-22T09:13:16;18.38;;;8.10;;
13319;SDS011;59599;47.608;12.190;2023-06-22T09:15:43;17.75;;;7.88;;
13319;SDS011;59599;47.608;12.190;2023-06-22T09:18:12;19.05;;;8.02;;
13319;SDS011;59599;47.608;12.190;2023-06-22T09:20:39;17.80;;;8.15;;
13319;SDS011;59599;47.608;12.190;2023-06-22T09:23:04;14.30;;;6.78;;
13319;SDS011;59599;47.608;12.190;2023-06-22T09:25:30;20.60;;;7.40;;
13319;SDS011;59599;47.608;12.190;2023-06-22T09:27:56;26.60;;;8.75;;
13319;SDS011;59599;47.608;12.190;2023-06-22T09:30:22;20.98;;;8.25;;
13319;SDS011;59599;47.608;12.190;2023-06-22T09:32:47;19.20;;;7.28;;
13319;SDS011;59599;47.608;12.190;2023-06-22T09:35:13;19.52;;;8.40;;
13319;SDS011;59599;47.608;12.190;2023-06-22T09:37:40;19.30;;;8.07;;
13319;SDS011;59599;47.608;12.190;2023-06-22T09:40:06;23.42;;;9.02;;
13319;SDS011;59599;47.608;12.190;2023-06-22T09:42:37;24.13;;;8.52;;
13319;SDS011;59599;47.608;12.190;2023-06-22T09:45:03;18.55;;;8.48;;
13319;SDS011;59599;47.608;12.190;2023-06-22T09:47:29;21.38;;;8.45;;
13319;SDS011;59599;47.608;12.190;2023-06-22T09:49:55;19.55;;;8.15;;
13319;SDS011;59599;47.608;12.190;2023-06-22T09:52:24;23.60;;;9.07;;
13319;SDS011;59599;47.608;12.190;2023-06-22T09:54:49;19.23;;;8.90;;
13319;SDS011;59599;47.608;12.190;2023-06-22T09:57:15;22.92;;;8.02;;
13319;SDS011;59599;47.608;12.190;2023-06-22T09:59:42;21.88;;;8.52;;
13319;SDS011;59599;47.608;12.190;2023-06-22T10:02:08;16.88;;;7.82;;
13319;SDS011;59599;47.608;12.190;2023-06-22T10:04:34;23.48;;;8.32;;
13319;SDS011;59599;47.608;12.190;2023-06-22T10:07:01;16.27;;;8.23;;
13319;SDS011;59599;47.608;12.190;2023-06-22T10:09:27;21.92;;;8.82;;
13319;SDS011;59599;47.608;12.190;2023-06-22T10:11:53;23.02;;;9.45;;
13319;SDS011;59599;47.608;12.190;2023-06-22T10:14:19;21.92;;;8.40;;
13319;SDS011;59599;47.608;12.190;2023-06-22T10:16:45;22.95;;;8.85;;
13319;SDS011;59599;47.608;12.190;2023-06-22T10:19:10;23.40;;;8.68;;
13319;SDS011;59599;47.608;12.190;2023-06-22T10:21:36;23.33;;;8.77;;
13319;SDS011;59599;47.608;12.190;2023-06-22T10:24:02;24.23;;;8.60;;
13319;SDS011;59599;47.608;12.190;2023-06-22T10:26:34;18.35;;;7.90;;
13319;SDS011;59599;47.608;12.190;2023-06-22T10:29:00;17.67;;;7.18;;
13319;SDS011;59599;47.608;12.190;2023-06-22T10:31:26;20.42;;;8.10;;
13319;SDS011;59599;47.608;12.190;2023-06-22T10:33:53;20.83;;;8.02;;
13319;SDS011;59599;47.608;12.190;2023-06-22T10:36:19;21.95;;;8.00;;
13319;SDS011;59599;47.608;12.190;2023-06-22T10:38:45;20.88;;;8.23;;
13319;SDS011;59599;47.608;12.190;2023-06-22T10:41:12;21.42;;;8.93;;
13319;SDS011;59599;47.608;12.190;2023-06-22T10:43:37;18.40;;;8.27;;
13319;SDS011;59599;47.608;12.190;2023-06-22T10:46:03;16.80;;;7.57;;
13319;SDS011;59599;47.608;12.190;2023-06-22T10:48:30;22.00;;;7.97;;
13319;SDS011;59599;47.608;12.190;2023-06-22T10:50:56;18.85;;;7.90;;
13319;SDS011;59599;47.608;12.190;2023-06-22T10:53:22;24.40;;;8.18;;
13319;SDS011;59599;47.608;12.190;2023-06-22T10:55:47;20.17;;;8.07;;
13319;SDS011;59599;47.608;12.190;2023-06-22T10:58:13;20.90;;;9.25;;
13319;SDS011;59599;47.608;12.190;2023-06-22T11:00:39;20.02;;;9.07;;
13319;SDS011;59599;47.608;12.190;2023-06-22T11:03:05;23.15;;;8.80;;
13319;SDS011;59599;47.608;12.190;2023-06-22T11:05:31;25.63;;;8.82;;
13319;SDS011;59599;47.608;12.190;2023-06-22T11:07:57;28.65;;;12.52;;
13319;SDS011;59599;47.608;12.190;2023-06-22T11:10:24;24.40;;;8.25;;
13319;SDS011;59599;47.608;12.190;2023-06-22T11:12:51;23.70;;;8.50;;
13319;SDS011;59599;47.608;12.190;2023-06-22T11:15:18;21.50;;;7.30;;
13319;SDS011;59599;47.608;12.190;2023-06-22T11:17:44;18.45;;;7.25;;
13319;SDS011;59599;47.608;12.190;2023-06-22T11:20:10;13.32;;;7.18;;
13319;SDS011;59599;47.608;12.190;2023-06-22T11:22:37;23.70;;;7.30;;
13319;SDS011;59599;47.608;12.190;2023-06-22T11:25:04;21.88;;;7.75;;
13319;SDS011;59599;47.608;12.190;2023-06-22T11:27:30;17.55;;;7.38;;
13319;SDS011;59599;47.608;12.190;2023-06-22T11:29:56;19.13;;;6.97;;
13319;SDS011;59599;47.608;12.190;2023-06-22T11:32:22;21.25;;;7.07;;
13319;SDS011;59599;47.608;12.190;2023-06-22T11:34:48;24.25;;;7.68;;
13319;SDS011;59599;47.608;12.190;2023-06-22T11:37:14;15.43;;;6.65;;
13319;SDS011;59599;47.608;12.190;2023-06-22T11:39:41;25.45;;;7.45;;
13319;SDS011;59599;47.608;12.190;2023-06-22T11:42:07;27.45;;;7.13;;
13319;SDS011;59599;47.608;12.190;2023-06-22T11:44:34;16.13;;;6.95;;
13319;SDS011;59599;47.608;12.190;2023-06-22T11:46:59;16.58;;;6.70;;
13319;SDS011;59599;47.608;12.190;2023-06-22T11:49:26;19.75;;;7.00;;
13319;SDS011;59599;47.608;12.190;2023-06-22T11:51:52;20.88;;;6.57;;
13319;SDS011;59599;47.608;12.190;2023-06-22T11:54:18;16.92;;;7.55;;
13319;SDS011;59599;47.608;12.190;2023-06-22T11:56:44;19.58;;;6.88;;
13319;SDS011;59599;47.608;12.190;2023-06-22T11:59:10;20.95;;;7.07;;
13319;SDS011;59599;47.608;12.190;2023-06-22T12:01:36;15.82;;;6.07;;
13319;SDS011;59599;47.608;12.190;2023-06-22T12:04:02;21.80;;;7.43;;
13319;SDS011;59599;47.608;12.190;2023-06-22T12:06:30;19.13;;;7.05;;
13319;SDS011;59599;47.608;12.190;2023-06-22T12:08:57;24.10;;;7.45;;
13319;SDS011;59599;47.608;12.190;2023-06-22T12:11:22;18.63;;;6.63;;
13319;SDS011;59599;47.608;12.190;2023-06-22T12:13:48;20.65;;;6.90;;
13319;SDS011;59599;47.608;12.190;2023-06-22T12:16:14;18.33;;;6.68;;
13319;SDS011;59599;47.608;12.190;2023-06-22T12:18:39;18.73;;;7.15;;
13319;SDS011;59599;47.608;12.190;2023-06-22T12:21:07;22.20;;;6.65;;
13319;SDS011;59599;47.608;12.190;2023-06-22T12:23:32;18.67;;;7.35;;
13319;SDS011;59599;47.608;12.190;2023-06-22T12:25:58;27.08;;;7.65;;
13319;SDS011;59599;47.608;12.190;2023-06-22T12:28:25;16.13;;;6.82;;
13319;SDS011;59599;47.608;12.190;2023-06-22T12:30:50;18.55;;;7.68;;
13319;SDS011;59599;47.608;12.190;2023-06-22T12:33:16;23.17;;;7.43;;
13319;SDS011;59599;47.608;12.190;2023-06-22T12:35:43;19.52;;;6.72;;
13319;SDS011;59599;47.608;12.190;2023-06-22T12:38:10;19.33;;;6.68;;
13319;SDS011;59599;47.608;12.190;2023-06-22T12:40:36;23.38;;;8.18;;
13319;SDS011;59599;47.608;12.190;2023-06-22T12:43:02;24.30;;;7.25;;
13319;SDS011;59599;47.608;12.190;2023-06-22T12:45:28;19.15;;;6.65;;
13319;SDS011;59599;47.608;12.190;2023-06-22T12:47:56;19.67;;;6.85;;
13319;SDS011;59599;47.608;12.190;2023-06-22T12:50:22;29.75;;;7.70;;
13319;SDS011;59599;47.608;12.190;2023-06-22T12:52:48;27.33;;;7.15;;
13319;SDS011;59599;47.608;12.190;2023-06-22T12:55:14;22.38;;;7.30;;
13319;SDS011;59599;47.608;12.190;2023-06-22T12:57:40;19.30;;;6.68;;
13319;SDS011;59599;47.608;12.190;2023-06-22T13:00:05;22.35;;;7.25;;
13319;SDS011;59599;47.608;12.190;2023-06-22T13:02:33;24.13;;;7.00;;
13319;SDS011;59599;47.608;12.190;2023-06-22T13:04:59;22.38;;;7.53;;
13319;SDS011;59599;47.608;12.190;2023-06-22T13:07:25;18.45;;;6.57;;
13319;SDS011;59599;47.608;12.190;2023-06-22T13:09:51;15.75;;;6.47;;
13319;SDS011;59599;47.608;12.190;2023-06-22T13:12:17;22.60;;;7.55;;
13319;SDS011;59599;47.608;12.190;2023-06-22T13:14:44;22.65;;;6.97;;
13319;SDS011;59599;47.608;12.190;2023-06-22T13:17:11;18.25;;;7.00;;
13319;SDS011;59599;47.608;12.190;2023-06-22T13:19:37;14.82;;;5.97;;
13319;SDS011;59599;47.608;12.190;2023-06-22T13:22:03;14.05;;;5.93;;
13319;SDS011;59599;47.608;12.190;2023-06-22T13:24:30;23.23;;;6.65;;
13319;SDS011;59599;47.608;12.190;2023-06-22T13:26:55;13.48;;;5.40;;
13319;SDS011;59599;47.608;12.190;2023-06-22T13:29:21;23.65;;;6.30;;
13319;SDS011;59599;47.608;12.190;2023-06-22T13:31:47;22.33;;;7.22;;
13319;SDS011;59599;47.608;12.190;2023-06-22T13:34:13;16.45;;;6.55;;
13319;SDS011;59599;47.608;12.190;2023-06-22T13:36:39;23.67;;;7.30;;
13319;SDS011;59599;47.608;12.190;2023-06-22T13:39:05;16.60;;;6.65;;
13319;SDS011;59599;47.608;12.190;2023-06-22T13:41:31;18.63;;;7.30;;
13319;SDS011;59599;47.608;12.190;2023-06-22T13:43:57;14.10;;;6.82;;
13319;SDS011;59599;47.608;12.190;2023-06-22T13:46:23;17.75;;;6.57;;
13319;SDS011;59599;47.608;12.190;2023-06-22T13:48:49;27.38;;;7.25;;
13319;SDS011;59599;47.608;12.190;2023-06-22T13:51:14;17.38;;;6.30;;
13319;SDS011;59599;47.608;12.190;2023-06-22T13:53:40;16.98;;;6.38;;
13319;SDS011;59599;47.608;12.190;2023-06-22T13:56:06;18.50;;;6.68;;
13319;SDS011;59599;47.608;12.190;2023-06-22T13:58:32;27.45;;;7.35;;
13319;SDS011;59599;47.608;12.190;2023-06-22T14:00:58;21.98;;;6.40;;
13319;SDS011;59599;47.608;12.190;2023-06-22T14:03:24;20.65;;;6.28;;
13319;SDS011;59599;47.608;12.190;2023-06-22T14:05:50;24.02;;;6.93;;
13319;SDS011;59599;47.608;12.190;2023-06-22T14:08:19;22.48;;;6.45;;
13319;SDS011;59599;47.608;12.190;2023-06-22T14:10:46;27.42;;;7.40;;
13319;SDS011;59599;47.608;12.190;2023-06-22T14:13:11;22.38;;;7.32;;
13319;SDS011;59599;47.608;12.190;2023-06-22T14:15:37;23.60;;;6.93;;
13319;SDS011;59599;47.608;12.190;2023-06-22T14:18:03;17.23;;;6.43;;
13319;SDS011;59599;47.608;12.190;2023-06-22T14:20:29;29.05;;;7.80;;
13319;SDS011;59599;47.608;12.190;2023-06-22T14:22:55;19.65;;;6.53;;
13319;SDS011;59599;47.608;12.190;2023-06-22T14:25:21;22.67;;;6.70;;
13319;SDS011;59599;47.608;12.190;2023-06-22T14:27:47;18.10;;;6.03;;
13319;SDS011;59599;47.608;12.190;2023-06-22T14:30:13;21.95;;;7.40;;
13319;SDS011;59599;47.608;12.190;2023-06-22T14:32:39;22.17;;;6.95;;
13319;SDS011;59599;47.608;12.190;2023-06-22T14:35:05;22.75;;;7.38;;
13319;SDS011;59599;47.608;12.190;2023-06-22T14:37:31;27.45;;;7.10;;
13319;SDS011;59599;47.608;12.190;2023-06-22T14:39:56;15.32;;;6.75;;
13319;SDS011;59599;47.608;12.190;2023-06-22T14:42:22;15.95;;;6.32;;
13319;SDS011;59599;47.608;12.190;2023-06-22T14:44:48;23.05;;;7.45;;
13319;SDS011;59599;47.608;12.190;2023-06-22T14:47:14;19.77;;;6.90;;
13319;SDS011;59599;47.608;12.190;2023-06-22T14:49:40;20.98;;;7.00;;
13319;SDS011;59599;47.608;12.190;2023-06-22T14:52:06;16.55;;;6.60;;
13319;SDS011;59599;47.608;12.190;2023-06-22T14:54:32;22.00;;;6.53;;
13319;SDS011;59599;47.608;12.190;2023-06-22T14:56:58;15.40;;;5.93;;
13319;SDS011;59599;47.608;12.190;2023-06-22T14:59:24;22.10;;;7.30;;
13319;SDS011;59599;47.608;12.190;2023-06-22T15:01:50;15.57;;;6.10;;
13319;SDS011;59599;47.608;12.190;2023-06-22T15:04:15;18.88;;;7.28;;
13319;SDS011;59599;47.608;12.190;2023-06-22T15:06:41;20.52;;;7.13;;
13319;SDS011;59599;47.608;12.190;2023-06-22T15:09:07;23.05;;;7.55;;
13319;SDS011;59599;47.608;12.190;2023-06-22T15:11:32;18.40;;;6.57;;
13319;SDS011;59599;47.608;12.190;2023-06-22T15:13:58;23.77;;;6.82;;
13319;SDS011;59599;47.608;12.190;2023-06-22T15:16:25;17.77;;;6.75;;
13319;SDS011;59599;47.608;12.190;2023-06-22T15:18:51;17.42;;;6.60;;
13319;SDS011;59599;47.608;12.190;2023-06-22T15:21:17;21.52;;;6.70;;
13319;SDS011;59599;47.608;12.190;2023-06-22T15:23:43;16.83;;;6.93;;
13319;SDS011;59599;47.608;12.190;2023-06-22T15:26:09;20.48;;;6.80;;
13319;SDS011;59599;47.608;12.190;2023-06-22T15:28:34;20.15;;;6.97;;
13319;SDS011;59599;47.608;12.190;2023-06-22T15:31:02;13.60;;;5.95;;
13319;SDS011;59599;47.608;12.190;2023-06-22T15:33:29;19.08;;;6.65;;
13319;SDS011;59599;47.608;12.190;2023-06-22T15:35:57;18.90;;;6.82;;
13319;SDS011;59599;47.608;12.190;2023-06-22T15:38:23;19.33;;;6.68;;
13319;SDS011;59599;47.608;12.190;2023-06-22T15:40:49;18.10;;;6.88;;
13319;SDS011;59599;47.608;12.190;2023-06-22T15:43:14;23.38;;;6.82;;
13319;SDS011;59599;47.608;12.190;2023-06-22T15:45:40;19.85;;;6.15;;
13319;SDS011;59599;47.608;12.190;2023-06-22T15:48:06;15.93;;;7.13;;
13319;SDS011;59599;47.608;12.190;2023-06-22T15:50:32;18.52;;;6.55;;
13319;SDS011;59599;47.608;12.190;2023-06-22T15:52:58;26.90;;;7.00;;
13319;SDS011;59599;47.608;12.190;2023-06-22T15:55:24;22.92;;;7.07;;
13319;SDS011;59599;47.608;12.190;2023-06-22T15:57:50;25.58;;;6.78;;
13319;SDS011;59599;47.608;12.190;2023-06-22T16:00:16;16.20;;;6.90;;
13319;SDS011;59599;47.608;12.190;2023-06-22T16:02:43;22.58;;;6.28;;
13319;SDS011;59599;47.608;12.190;2023-06-22T16:05:09;17.67;;;6.80;;
13319;SDS011;59599;47.608;12.190;2023-06-22T16:07:38;28.63;;;7.22;;
13319;SDS011;59599;47.608;12.190;2023-06-22T16:10:04;23.52;;;6.95;;
13319;SDS011;59599;47.608;12.190;2023-06-22T16:12:31;17.63;;;6.57;;
13319;SDS011;59599;47.608;12.190;2023-06-22T16:14:57;25.20;;;7.30;;
13319;SDS011;59599;47.608;12.190;2023-06-22T16:17:22;22.20;;;6.60;;
13319;SDS011;59599;47.608;12.190;2023-06-22T16:19:50;22.70;;;6.65;;
13319;SDS011;59599;47.608;12.190;2023-06-22T16:22:19;21.63;;;7.00;;
13319;SDS011;59599;47.608;12.190;2023-06-22T16:24:48;25.35;;;7.40;;
13319;SDS011;59599;47.608;12.190;2023-06-22T16:27:14;21.23;;;6.80;;
13319;SDS011;59599;47.608;12.190;2023-06-22T16:29:40;23.48;;;6.82;;
13319;SDS011;59599;47.608;12.190;2023-06-22T16:32:07;23.40;;;6.28;;
13319;SDS011;59599;47.608;12.190;2023-06-22T16:34:33;19.90;;;6.28;;
13319;SDS011;59599;47.608;12.190;2023-06-22T16:36:59;18.98;;;6.95;;
13319;SDS011;59599;47.608;12.190;2023-06-22T16:39:25;17.13;;;6.22;;
13319;SDS011;59599;47.608;12.190;2023-06-22T16:41:51;18.73;;;6.15;;
13319;SDS011;59599;47.608;12.190;2023-06-22T16:44:17;17.92;;;5.95;;
13319;SDS011;59599;47.608;12.190;2023-06-22T16:46:44;21.35;;;6.63;;
13319;SDS011;59599;47.608;12.190;2023-06-22T16:49:09;22.90;;;6.55;;
13319;SDS011;59599;47.608;12.190;2023-06-22T16:51:35;22.33;;;6.60;;
13319;SDS011;59599;47.608;12.190;2023-06-22T16:54:01;17.40;;;6.57;;
13319;SDS011;59599;47.608;12.190;2023-06-22T16:56:28;20.88;;;6.80;;
13319;SDS011;59599;47.608;12.190;2023-06-22T16:58:54;20.33;;;6.03;;
13319;SDS011;59599;47.608;12.190;2023-06-22T17:01:20;19.67;;;6.78;;
13319;SDS011;59599;47.608;12.190;2023-06-22T17:03:50;17.10;;;6.28;;
13319;SDS011;59599;47.608;12.190;2023-06-22T17:06:26;21.58;;;6.50;;
13319;SDS011;59599;47.608;12.190;2023-06-22T17:08:52;23.80;;;6.97;;
13319;SDS011;59599;47.608;12.190;2023-06-22T17:11:19;17.27;;;6.57;;
13319;SDS011;59599;47.608;12.190;2023-06-22T17:13:44;16.10;;;5.70;;
13319;SDS011;59599;47.608;12.190;2023-06-22T17:16:12;14.50;;;6.47;;
13319;SDS011;59599;47.608;12.190;2023-06-22T17:18:38;18.52;;;6.10;;
13319;SDS011;59599;47.608;12.190;2023-06-22T17:21:04;13.82;;;5.90;;
13319;SDS011;59599;47.608;12.190;2023-06-22T17:23:30;15.88;;;6.70;;
13319;SDS011;59599;47.608;12.190;2023-06-22T17:25:57;16.20;;;6.13;;
13319;SDS011;59599;47.608;12.190;2023-06-22T17:28:24;16.13;;;6.40;;
13319;SDS011;59599;47.608;12.190;2023-06-22T17:31:07;19.85;;;6.57;;
13319;SDS011;59599;47.608;12.190;2023-06-22T17:33:34;21.50;;;6.45;;
13319;SDS011;59599;47.608;12.190;2023-06-22T17:36:00;15.52;;;6.68;;
13319;SDS011;59599;47.608;12.190;2023-06-22T17:38:27;17.45;;;6.47;;
13319;SDS011;59599;47.608;12.190;2023-06-22T17:40:59;22.33;;;6.22;;
13319;SDS011;59599;47.608;12.190;2023-06-22T17:43:27;12.75;;;6.75;;
13319;SDS011;59599;47.608;12.190;2023-06-22T17:45:52;17.65;;;6.80;;
13319;SDS011;59599;47.608;12.190;2023-06-22T17:48:22;18.65;;;6.90;;
13319;SDS011;59599;47.608;12.190;2023-06-22T17:50:49;19.08;;;7.03;;
13319;SDS011;59599;47.608;12.190;2023-06-22T17:53:15;18.63;;;7.57;;
13319;SDS011;59599;47.608;12.190;2023-06-22T17:55:41;15.13;;;6.50;;
13319;SDS011;59599;47.608;12.190;2023-06-22T17:58:07;17.95;;;7.25;;
13319;SDS011;59599;47.608;12.190;2023-06-22T18:00:33;21.77;;;6.30;;
13319;SDS011;59599;47.608;12.190;2023-06-22T18:02:59;13.82;;;6.10;;
13319;SDS011;59599;47.608;12.190;2023-06-22T18:05:29;18.35;;;6.30;;
13319;SDS011;59599;47.608;12.190;2023-06-22T18:07:56;15.15;;;6.82;;
13319;SDS011;59599;47.608;12.190;2023-06-22T18:10:23;16.58;;;7.13;;
13319;SDS011;59599;47.608;12.190;2023-06-22T18:12:51;17.92;;;6.55;;
13319;SDS011;59599;47.608;12.190;2023-06-22T18:15:19;16.30;;;6.10;;